PWSweather.com
Personal Weather Stations
Station Observations
WAREHAM1
West Wareham, MA 02576

West Wareham, MA 02576

Lat: 41.7961059, Lon: -70.775612

Elevation: 88

Station Type: Davis Vantage Vue

http://www.gateway2capecod.com

Latest ConditionsUpdated 6:30:34 AM EDT Wednesday, Apr 23, 2014
Currently Today's Max Today's Min Today's Average
Temperature 48.2°F9.0°C 50.0°F10.0°C 48.2°F9.0°C 49.3°F9.6°C
Dew Point 47.1°F8.4°C 48.6°F9.2°C 47.1°F8.4°C 48.1°F8.9°C
Winds 1.7 mph NE2.7 kmh NE 1.7 mph NE2.7 kmh NE - 0.3 mph 0.5 kmh
Wind Gusts 2.0 mph3.2 kmh 3.0 mph4.8 kmh - -
Humidity 96% 96% 94% 96%
Pressure 29.48 in998.3 mb 29.56 in1001.0 mb 29.48 in998.3 mb -
Hour Temp Dew Point Humidity Winds Wind Gusts Pressure Precip Precip Rate Daily Precip Total
06:30 AM 48.2°F9.0°C 47.1°F8.4°C 96% 1.7 mph NE2.7 kmh NE 2.0 mph3.2 kmh 29.48 in998.3 mb 0.00 in0.0 mm 0.00 in/hr0.0 mm/hr 0.00 in0.0 mm
06:20 AM 48.3°F9.1°C 47.2°F8.4°C 96% Calm Calm -- 29.50 in999.0 mb 0.00 in0.0 mm 0.00 in/hr0.0 mm/hr 0.00 in0.0 mm
06:10 AM 48.4°F9.1°C 47.3°F8.5°C 96% Calm Calm -- 29.50 in999.0 mb 0.00 in0.0 mm 0.00 in/hr0.0 mm/hr 0.00 in0.0 mm
06:02 AM 48.6°F9.2°C 47.5°F8.6°C 96% 0.3 mph SSW0.5 kmh SSW -- 29.50 in999.0 mb 0.00 in0.0 mm 0.00 in/hr0.0 mm/hr 0.00 in0.0 mm
05:50 AM 48.7°F9.3°C 47.6°F8.7°C 96% Calm Calm -- 29.50 in999.0 mb 0.00 in0.0 mm 0.00 in/hr0.0 mm/hr 0.00 in0.0 mm
05:40 AM 48.7°F9.3°C 47.7°F8.7°C 96% Calm Calm -- 29.49 in998.6 mb 0.00 in0.0 mm 0.00 in/hr0.0 mm/hr 0.00 in0.0 mm
05:30 AM 48.9°F9.4°C 47.8°F8.8°C 96% Calm Calm -- 29.49 in998.6 mb 0.00 in0.0 mm 0.00 in/hr0.0 mm/hr 0.00 in0.0 mm
05:20 AM 48.9°F9.4°C 47.8°F8.8°C 96% Calm Calm -- 29.49 in998.6 mb 0.00 in0.0 mm 0.00 in/hr0.0 mm/hr 0.00 in0.0 mm
05:10 AM 49.0°F9.4°C 47.9°F8.8°C 96% Calm Calm -- 29.49 in998.6 mb 0.00 in0.0 mm 0.00 in/hr0.0 mm/hr 0.00 in0.0 mm
05:02 AM 49.0°F9.4°C 47.9°F8.8°C 96% Calm Calm -- 29.50 in999.0 mb 0.00 in0.0 mm 0.00 in/hr0.0 mm/hr 0.00 in0.0 mm
04:50 AM 49.0°F9.4°C 47.9°F8.8°C 96% Calm Calm -- 29.50 in999.0 mb 0.00 in0.0 mm 0.00 in/hr0.0 mm/hr 0.00 in0.0 mm
04:40 AM 49.1°F9.5°C 48.0°F8.9°C 96% 0.3 mph WSW0.5 kmh WSW 1.0 mph1.6 kmh 29.50 in999.0 mb 0.00 in0.0 mm 0.00 in/hr0.0 mm/hr 0.00 in0.0 mm
04:30 AM 49.2°F9.6°C 48.1°F8.9°C 96% 0.3 mph WSW0.5 kmh WSW 1.0 mph1.6 kmh 29.49 in998.6 mb 0.00 in0.0 mm 0.00 in/hr0.0 mm/hr 0.00 in0.0 mm
04:20 AM 49.3°F9.6°C 48.2°F9.0°C 96% 0.2 mph WSW0.3 kmh WSW -- 29.49 in998.6 mb 0.00 in0.0 mm 0.00 in/hr0.0 mm/hr 0.00 in0.0 mm
04:10 AM 49.4°F9.7°C 48.3°F9.1°C 96% Calm Calm -- 29.50 in999.0 mb 0.00 in0.0 mm 0.00 in/hr0.0 mm/hr 0.00 in0.0 mm
04:05 AM 49.3°F9.6°C 48.2°F9.0°C 96% Calm Calm -- 29.51 in999.3 mb 0.00 in0.0 mm 0.00 in/hr0.0 mm/hr 0.00 in0.0 mm
03:50 AM 49.4°F9.7°C 48.3°F9.1°C 96% 0.2 mph S0.3 kmh S 1.0 mph1.6 kmh 29.51 in999.3 mb 0.00 in0.0 mm 0.00 in/hr0.0 mm/hr 0.00 in0.0 mm
03:40 AM 49.3°F9.6°C 48.2°F9.0°C 96% 0.2 mph SSW0.3 kmh SSW 1.0 mph1.6 kmh 29.51 in999.3 mb 0.00 in0.0 mm 0.00 in/hr0.0 mm/hr 0.00 in0.0 mm
03:30 AM 49.2°F9.6°C 48.1°F8.9°C 96% Calm Calm -- 29.50 in999.0 mb 0.00 in0.0 mm 0.00 in/hr0.0 mm/hr 0.00 in0.0 mm
03:20 AM 49.3°F9.6°C 48.2°F9.0°C 96% Calm Calm -- 29.50 in999.0 mb 0.00 in0.0 mm 0.00 in/hr0.0 mm/hr 0.00 in0.0 mm
03:10 AM 49.3°F9.6°C 48.2°F9.0°C 96% Calm Calm -- 29.51 in999.3 mb 0.00 in0.0 mm 0.00 in/hr0.0 mm/hr 0.00 in0.0 mm
03:04 AM 49.4°F9.7°C 48.0°F8.9°C 95% Calm Calm -- 29.51 in999.3 mb 0.00 in0.0 mm 0.00 in/hr0.0 mm/hr 0.00 in0.0 mm
02:50 AM 49.5°F9.7°C 48.1°F8.9°C 95% Calm Calm 1.0 mph1.6 kmh 29.51 in999.3 mb 0.00 in0.0 mm 0.00 in/hr0.0 mm/hr 0.00 in0.0 mm
02:40 AM 49.5°F9.7°C 48.1°F8.9°C 95% Calm Calm -- 29.52 in999.7 mb 0.00 in0.0 mm 0.00 in/hr0.0 mm/hr 0.00 in0.0 mm
02:30 AM 49.5°F9.7°C 48.2°F9.0°C 95% 0.4 mph SW0.6 kmh SW 1.0 mph1.6 kmh 29.52 in999.7 mb 0.00 in0.0 mm 0.00 in/hr0.0 mm/hr 0.00 in0.0 mm
02:20 AM 49.6°F9.8°C 48.2°F9.0°C 95% 0.4 mph SSW0.6 kmh SSW 1.0 mph1.6 kmh 29.52 in999.7 mb 0.00 in0.0 mm 0.00 in/hr0.0 mm/hr 0.00 in0.0 mm
02:10 AM 49.6°F9.8°C 48.2°F9.0°C 95% 0.5 mph S0.8 kmh S 1.0 mph1.6 kmh 29.52 in999.7 mb 0.00 in0.0 mm 0.00 in/hr0.0 mm/hr 0.00 in0.0 mm
02:03 AM 49.7°F9.8°C 48.3°F9.1°C 95% Calm Calm -- 29.52 in999.7 mb 0.00 in0.0 mm 0.00 in/hr0.0 mm/hr 0.00 in0.0 mm
01:50 AM 49.7°F9.8°C 48.3°F9.1°C 95% 1.2 mph S1.9 kmh S 2.0 mph3.2 kmh 29.53 in1000.0 mb 0.00 in0.0 mm 0.00 in/hr0.0 mm/hr 0.00 in0.0 mm
01:40 AM 49.7°F9.8°C 48.3°F9.1°C 95% 0.5 mph S0.8 kmh S 1.0 mph1.6 kmh 29.52 in999.7 mb 0.00 in0.0 mm 0.00 in/hr0.0 mm/hr 0.00 in0.0 mm
01:30 AM 49.7°F9.8°C 48.3°F9.1°C 95% Calm Calm -- 29.53 in1000.0 mb 0.00 in0.0 mm 0.00 in/hr0.0 mm/hr 0.00 in0.0 mm
01:20 AM 49.8°F9.9°C 48.4°F9.1°C 95% Calm Calm -- 29.53 in1000.0 mb 0.00 in0.0 mm 0.00 in/hr0.0 mm/hr 0.00 in0.0 mm
01:10 AM 49.8°F9.9°C 48.4°F9.1°C 95% Calm Calm 1.0 mph1.6 kmh 29.54 in1000.3 mb 0.00 in0.0 mm 0.00 in/hr0.0 mm/hr 0.00 in0.0 mm
01:01 AM 49.9°F9.9°C 48.5°F9.2°C 95% Calm Calm -- 29.54 in1000.3 mb 0.00 in0.0 mm 0.00 in/hr0.0 mm/hr 0.00 in0.0 mm
12:50 AM 49.9°F9.9°C 48.6°F9.2°C 95% 1.3 mph SSW2.1 kmh SSW 2.0 mph3.2 kmh 29.55 in1000.7 mb 0.00 in0.0 mm 0.00 in/hr0.0 mm/hr 0.00 in0.0 mm
12:40 AM 50.0°F10.0°C 48.6°F9.2°C 95% 0.8 mph SSW1.3 kmh SSW 2.0 mph3.2 kmh 29.55 in1000.7 mb 0.00 in0.0 mm 0.00 in/hr0.0 mm/hr 0.00 in0.0 mm
12:30 AM 49.9°F9.9°C 48.5°F9.2°C 95% 0.4 mph SSW0.6 kmh SSW 1.0 mph1.6 kmh 29.54 in1000.3 mb 0.00 in0.0 mm 0.00 in/hr0.0 mm/hr 0.00 in0.0 mm
12:20 AM 49.9°F9.9°C 48.5°F9.2°C 95% Calm Calm -- 29.54 in1000.3 mb 0.00 in0.0 mm 0.00 in/hr0.0 mm/hr 0.00 in0.0 mm
12:10 AM 50.0°F10.0°C 48.6°F9.2°C 95% 1.1 mph SSW1.8 kmh SSW 2.0 mph3.2 kmh 29.55 in1000.7 mb 0.00 in0.0 mm 0.00 in/hr0.0 mm/hr 0.00 in0.0 mm
12:00 AM 50.0°F10.0°C 48.3°F9.1°C 94% 0.8 mph SSE1.3 kmh SSE 3.0 mph4.8 kmh 29.56 in1001.0 mb 0.00 in0.0 mm 0.00 in/hr0.0 mm/hr 0.00 in0.0 mm